sensor_id;sensor_type;location;lat;lon;timestamp;noise_LAeq;noise_LA_min;noise_LA_max;noise_LA01;noise_LA95
64079;Laerm;51042;49.696;10.808;2023-04-30T00:00:38;41.06;38.79;50.90;;
64079;Laerm;51042;49.696;10.808;2023-04-30T00:03:04;41.08;38.70;50.66;;
64079;Laerm;51042;49.696;10.808;2023-04-30T00:05:29;40.98;38.54;46.92;;
64079;Laerm;51042;49.696;10.808;2023-04-30T00:07:55;40.94;38.63;48.44;;
64079;Laerm;51042;49.696;10.808;2023-04-30T00:10:20;50.01;38.49;66.28;;
64079;Laerm;51042;49.696;10.808;2023-04-30T00:12:46;41.01;38.76;43.48;;
64079;Laerm;51042;49.696;10.808;2023-04-30T00:15:11;40.84;38.67;43.59;;
64079;Laerm;51042;49.696;10.808;2023-04-30T00:17:36;40.83;38.74;44.43;;
64079;Laerm;51042;49.696;10.808;2023-04-30T00:20:02;41.03;38.64;55.16;;
64079;Laerm;51042;49.696;10.808;2023-04-30T00:22:27;41.07;37.79;47.75;;
64079;Laerm;51042;49.696;10.808;2023-04-30T00:24:52;41.10;38.89;47.40;;
64079;Laerm;51042;49.696;10.808;2023-04-30T00:27:18;40.98;38.66;44.58;;
64079;Laerm;51042;49.696;10.808;2023-04-30T00:29:43;50.88;37.67;67.05;;
64079;Laerm;51042;49.696;10.808;2023-04-30T00:32:08;40.15;37.69;43.73;;
64079;Laerm;51042;49.696;10.808;2023-04-30T00:34:33;40.47;37.37;43.05;;
64079;Laerm;51042;49.696;10.808;2023-04-30T00:36:59;40.18;37.73;44.17;;
64079;Laerm;51042;49.696;10.808;2023-04-30T00:39:24;51.04;37.66;70.41;;
64079;Laerm;51042;49.696;10.808;2023-04-30T00:41:49;48.62;37.82;64.32;;
64079;Laerm;51042;49.696;10.808;2023-04-30T00:44:15;40.17;37.76;44.11;;
64079;Laerm;51042;49.696;10.808;2023-04-30T00:46:40;49.39;37.73;66.59;;
64079;Laerm;51042;49.696;10.808;2023-04-30T00:49:05;49.77;37.70;66.99;;
64079;Laerm;51042;49.696;10.808;2023-04-30T00:51:31;51.76;37.19;69.94;;
64079;Laerm;51042;49.696;10.808;2023-04-30T00:53:59;48.78;37.54;63.93;;
64079;Laerm;51042;49.696;10.808;2023-04-30T00:56:25;40.67;38.10;45.41;;
64079;Laerm;51042;49.696;10.808;2023-04-30T00:58:51;40.98;38.72;43.20;;
64079;Laerm;51042;49.696;10.808;2023-04-30T01:01:22;41.13;38.71;43.69;;
64079;Laerm;51042;49.696;10.808;2023-04-30T01:03:48;41.11;38.81;43.48;;
64079;Laerm;51042;49.696;10.808;2023-04-30T01:06:13;54.58;38.61;72.58;;
64079;Laerm;51042;49.696;10.808;2023-04-30T01:08:38;50.78;39.04;68.42;;
64079;Laerm;51042;49.696;10.808;2023-04-30T01:11:11;41.08;38.64;47.22;;
64079;Laerm;51042;49.696;10.808;2023-04-30T01:16:25;40.99;38.56;44.08;;
64079;Laerm;51042;49.696;10.808;2023-04-30T01:19:04;41.05;38.75;43.26;;
64079;Laerm;51042;49.696;10.808;2023-04-30T01:21:37;51.53;39.15;69.24;;
64079;Laerm;51042;49.696;10.808;2023-04-30T01:24:17;40.81;38.55;43.03;;
64079;Laerm;51042;49.696;10.808;2023-04-30T01:27:28;47.73;38.64;64.32;;
64079;Laerm;51042;49.696;10.808;2023-04-30T01:29:55;40.52;38.06;43.04;;
64079;Laerm;51042;49.696;10.808;2023-04-30T01:32:20;56.49;38.44;71.84;;
64079;Laerm;51042;49.696;10.808;2023-04-30T01:34:46;56.60;38.35;73.56;;
64079;Laerm;51042;49.696;10.808;2023-04-30T01:37:27;55.65;38.11;71.78;;
64079;Laerm;51042;49.696;10.808;2023-04-30T01:51:02;40.53;38.32;48.92;;
64079;Laerm;51042;49.696;10.808;2023-04-30T01:53:39;40.69;38.25;43.27;;
64079;Laerm;51042;49.696;10.808;2023-04-30T01:56:09;41.25;39.43;43.16;;
64079;Laerm;51042;49.696;10.808;2023-04-30T01:58:37;41.34;39.49;43.35;;
64079;Laerm;51042;49.696;10.808;2023-04-30T02:01:02;41.37;39.33;55.31;;
64079;Laerm;51042;49.696;10.808;2023-04-30T02:03:28;41.25;39.08;43.45;;
64079;Laerm;51042;49.696;10.808;2023-04-30T02:05:53;41.23;39.06;44.33;;
64079;Laerm;51042;49.696;10.808;2023-04-30T02:08:19;41.21;39.15;43.59;;
64079;Laerm;51042;49.696;10.808;2023-04-30T02:10:44;41.22;38.96;43.31;;
64079;Laerm;51042;49.696;10.808;2023-04-30T02:13:10;41.36;39.25;43.46;;
64079;Laerm;51042;49.696;10.808;2023-04-30T02:15:35;41.41;39.02;43.86;;
64079;Laerm;51042;49.696;10.808;2023-04-30T02:18:00;41.35;38.51;43.63;;
64079;Laerm;51042;49.696;10.808;2023-04-30T02:20:25;41.22;39.27;43.22;;
64079;Laerm;51042;49.696;10.808;2023-04-30T02:22:51;41.18;38.96;43.75;;
64079;Laerm;51042;49.696;10.808;2023-04-30T02:25:17;40.95;38.50;47.84;;
64079;Laerm;51042;49.696;10.808;2023-04-30T02:27:42;41.99;38.67;56.91;;
64079;Laerm;51042;49.696;10.808;2023-04-30T02:30:08;40.95;38.63;43.61;;
64079;Laerm;51042;49.696;10.808;2023-04-30T02:32:34;49.65;37.98;66.94;;
64079;Laerm;51042;49.696;10.808;2023-04-30T02:34:59;40.83;38.21;43.97;;
64079;Laerm;51042;49.696;10.808;2023-04-30T02:37:25;40.80;38.25;44.08;;
64079;Laerm;51042;49.696;10.808;2023-04-30T02:39:50;48.38;38.25;67.10;;
64079;Laerm;51042;49.696;10.808;2023-04-30T02:42:16;41.09;38.21;48.47;;
64079;Laerm;51042;49.696;10.808;2023-04-30T02:44:41;50.70;38.10;72.14;;
64079;Laerm;51042;49.696;10.808;2023-04-30T02:47:06;41.19;38.25;49.56;;
64079;Laerm;51042;49.696;10.808;2023-04-30T02:49:32;41.23;38.18;50.89;;
64079;Laerm;51042;49.696;10.808;2023-04-30T02:51:57;41.86;38.47;50.71;;
64079;Laerm;51042;49.696;10.808;2023-04-30T02:54:22;42.53;38.96;54.28;;
64079;Laerm;51042;49.696;10.808;2023-04-30T02:56:48;43.98;39.08;55.13;;
64079;Laerm;51042;49.696;10.808;2023-04-30T02:59:13;44.30;39.33;55.57;;
64079;Laerm;51042;49.696;10.808;2023-04-30T03:01:39;44.30;39.65;55.53;;
64079;Laerm;51042;49.696;10.808;2023-04-30T03:04:04;44.62;39.38;54.84;;
64079;Laerm;51042;49.696;10.808;2023-04-30T03:06:33;43.47;38.88;54.26;;
64079;Laerm;51042;49.696;10.808;2023-04-30T03:08:58;43.01;39.54;53.99;;
64079;Laerm;51042;49.696;10.808;2023-04-30T03:11:24;43.34;39.41;52.36;;
64079;Laerm;51042;49.696;10.808;2023-04-30T03:13:50;46.75;39.60;61.75;;
64079;Laerm;51042;49.696;10.808;2023-04-30T03:16:16;47.04;40.03;59.42;;
64079;Laerm;51042;49.696;10.808;2023-04-30T03:18:43;47.22;39.37;57.94;;
64079;Laerm;51042;49.696;10.808;2023-04-30T03:21:08;54.63;39.03;75.41;;
64079;Laerm;51042;49.696;10.808;2023-04-30T03:23:33;51.35;38.92;68.36;;
64079;Laerm;51042;49.696;10.808;2023-04-30T03:25:59;44.48;39.24;56.26;;
64079;Laerm;51042;49.696;10.808;2023-04-30T03:28:24;46.53;38.94;60.26;;
64079;Laerm;51042;49.696;10.808;2023-04-30T03:30:49;46.94;38.89;59.55;;
64079;Laerm;51042;49.696;10.808;2023-04-30T03:33:15;48.41;39.48;63.71;;
64079;Laerm;51042;49.696;10.808;2023-04-30T03:35:40;57.20;39.55;70.59;;
64079;Laerm;51042;49.696;10.808;2023-04-30T03:38:06;58.87;40.25;74.74;;
64079;Laerm;51042;49.696;10.808;2023-04-30T03:40:31;59.26;41.12;73.11;;
64079;Laerm;51042;49.696;10.808;2023-04-30T03:42:56;58.55;40.19;72.47;;
64079;Laerm;51042;49.696;10.808;2023-04-30T03:45:22;62.01;40.43;80.01;;
64079;Laerm;51042;49.696;10.808;2023-04-30T03:47:47;58.21;41.00;71.64;;
64079;Laerm;51042;49.696;10.808;2023-04-30T03:50:13;60.50;41.74;78.24;;
64079;Laerm;51042;49.696;10.808;2023-04-30T03:52:38;60.50;41.92;73.60;;
64079;Laerm;51042;49.696;10.808;2023-04-30T03:55:04;59.72;40.77;75.90;;
64079;Laerm;51042;49.696;10.808;2023-04-30T03:57:29;58.37;40.86;71.29;;
64079;Laerm;51042;49.696;10.808;2023-04-30T03:59:55;59.68;41.09;77.81;;
64079;Laerm;51042;49.696;10.808;2023-04-30T04:02:20;58.42;40.68;71.73;;
64079;Laerm;51042;49.696;10.808;2023-04-30T04:04:46;45.95;40.17;62.95;;
64079;Laerm;51042;49.696;10.808;2023-04-30T04:07:12;43.65;39.21;58.15;;
64079;Laerm;51042;49.696;10.808;2023-04-30T04:09:37;42.33;39.63;51.60;;
64079;Laerm;51042;49.696;10.808;2023-04-30T04:12:02;43.10;39.27;53.10;;
64079;Laerm;51042;49.696;10.808;2023-04-30T04:14:28;43.56;40.09;59.41;;
64079;Laerm;51042;49.696;10.808;2023-04-30T04:16:53;44.37;39.61;54.38;;
64079;Laerm;51042;49.696;10.808;2023-04-30T04:19:18;43.06;39.13;59.25;;
64079;Laerm;51042;49.696;10.808;2023-04-30T04:21:44;53.82;38.89;70.39;;
64079;Laerm;51042;49.696;10.808;2023-04-30T04:24:09;46.91;39.15;61.68;;
64079;Laerm;51042;49.696;10.808;2023-04-30T04:26:35;55.55;39.42;69.95;;
64079;Laerm;51042;49.696;10.808;2023-04-30T04:29:01;47.16;39.13;63.10;;
64079;Laerm;51042;49.696;10.808;2023-04-30T04:31:27;42.45;38.67;58.25;;
64079;Laerm;51042;49.696;10.808;2023-04-30T04:33:53;52.93;39.44;74.01;;
64079;Laerm;51042;49.696;10.808;2023-04-30T04:36:26;51.87;39.59;70.57;;
64079;Laerm;51042;49.696;10.808;2023-04-30T04:38:55;44.93;38.81;64.36;;
64079;Laerm;51042;49.696;10.808;2023-04-30T04:41:27;46.70;39.15;72.39;;
64079;Laerm;51042;49.696;10.808;2023-04-30T04:43:53;54.64;39.16;71.84;;
64079;Laerm;51042;49.696;10.808;2023-04-30T04:46:18;54.57;39.37;70.93;;
64079;Laerm;51042;49.696;10.808;2023-04-30T04:48:45;55.75;39.74;73.27;;
64079;Laerm;51042;49.696;10.808;2023-04-30T04:51:11;44.72;39.44;62.46;;
64079;Laerm;51042;49.696;10.808;2023-04-30T04:53:36;49.00;39.73;67.13;;
64079;Laerm;51042;49.696;10.808;2023-04-30T04:56:01;57.81;39.91;74.70;;
64079;Laerm;51042;49.696;10.808;2023-04-30T04:58:27;62.70;40.10;85.87;;
64079;Laerm;51042;49.696;10.808;2023-04-30T05:00:52;51.35;40.10;68.11;;
64079;Laerm;51042;49.696;10.808;2023-04-30T05:03:18;47.51;40.61;60.35;;
64079;Laerm;51042;49.696;10.808;2023-04-30T05:05:45;53.13;40.49;69.54;;
64079;Laerm;51042;49.696;10.808;2023-04-30T05:08:10;61.22;40.32;79.30;;
64079;Laerm;51042;49.696;10.808;2023-04-30T05:10:35;53.30;40.16;73.59;;
64079;Laerm;51042;49.696;10.808;2023-04-30T05:13:01;56.89;40.34;74.83;;
64079;Laerm;51042;49.696;10.808;2023-04-30T05:15:26;56.47;40.33;70.79;;
64079;Laerm;51042;49.696;10.808;2023-04-30T05:17:51;52.73;40.04;69.37;;
64079;Laerm;51042;49.696;10.808;2023-04-30T05:20:17;55.14;39.60;73.95;;
64079;Laerm;51042;49.696;10.808;2023-04-30T05:22:42;54.23;39.16;72.93;;
64079;Laerm;51042;49.696;10.808;2023-04-30T05:25:08;43.85;39.63;57.37;;
64079;Laerm;51042;49.696;10.808;2023-04-30T05:27:33;45.67;39.66;65.83;;
64079;Laerm;51042;49.696;10.808;2023-04-30T05:29:58;53.38;39.72;71.31;;
64079;Laerm;51042;49.696;10.808;2023-04-30T05:32:25;58.58;39.49;74.55;;
64079;Laerm;51042;49.696;10.808;2023-04-30T05:34:50;49.70;39.95;70.12;;
64079;Laerm;51042;49.696;10.808;2023-04-30T05:37:16;54.48;39.77;69.48;;
64079;Laerm;51042;49.696;10.808;2023-04-30T05:39:43;49.28;39.56;64.51;;
64079;Laerm;51042;49.696;10.808;2023-04-30T05:42:08;50.58;39.95;65.61;;
64079;Laerm;51042;49.696;10.808;2023-04-30T05:44:34;54.58;40.48;73.96;;
64079;Laerm;51042;49.696;10.808;2023-04-30T05:46:59;60.93;40.06;75.27;;
64079;Laerm;51042;49.696;10.808;2023-04-30T05:49:26;55.18;39.50;73.25;;
64079;Laerm;51042;49.696;10.808;2023-04-30T05:51:51;54.20;40.52;66.65;;
64079;Laerm;51042;49.696;10.808;2023-04-30T05:54:16;53.29;39.77;72.83;;
64079;Laerm;51042;49.696;10.808;2023-04-30T05:56:42;50.26;39.87;67.62;;
64079;Laerm;51042;49.696;10.808;2023-04-30T05:59:07;52.83;40.03;69.86;;
64079;Laerm;51042;49.696;10.808;2023-04-30T06:01:32;50.31;39.03;66.78;;
64079;Laerm;51042;49.696;10.808;2023-04-30T06:03:57;50.58;39.48;66.71;;
64079;Laerm;51042;49.696;10.808;2023-04-30T06:06:25;44.01;39.45;61.44;;
64079;Laerm;51042;49.696;10.808;2023-04-30T06:08:51;56.64;39.44;71.86;;
64079;Laerm;51042;49.696;10.808;2023-04-30T06:11:16;54.35;40.07;68.50;;
64079;Laerm;51042;49.696;10.808;2023-04-30T06:13:41;56.07;38.69;73.34;;
64079;Laerm;51042;49.696;10.808;2023-04-30T06:16:07;52.46;38.76;68.03;;
64079;Laerm;51042;49.696;10.808;2023-04-30T06:18:32;50.24;38.56;65.01;;
64079;Laerm;51042;49.696;10.808;2023-04-30T06:20:58;45.52;38.65;62.39;;
64079;Laerm;51042;49.696;10.808;2023-04-30T06:23:23;55.90;39.20;74.22;;
64079;Laerm;51042;49.696;10.808;2023-04-30T06:25:48;54.89;39.40;72.19;;
64079;Laerm;51042;49.696;10.808;2023-04-30T06:28:13;55.69;38.55;75.89;;
64079;Laerm;51042;49.696;10.808;2023-04-30T06:30:40;52.93;38.97;72.77;;
64079;Laerm;51042;49.696;10.808;2023-04-30T06:33:05;60.77;39.14;75.26;;
64079;Laerm;51042;49.696;10.808;2023-04-30T06:35:31;51.33;38.68;72.03;;
64079;Laerm;51042;49.696;10.808;2023-04-30T06:37:56;57.13;39.02;74.44;;
64079;Laerm;51042;49.696;10.808;2023-04-30T06:40:21;58.09;40.49;74.71;;
64079;Laerm;51042;49.696;10.808;2023-04-30T06:42:46;55.64;39.95;72.32;;
64079;Laerm;51042;49.696;10.808;2023-04-30T06:45:12;55.89;39.72;70.86;;
64079;Laerm;51042;49.696;10.808;2023-04-30T06:47:39;54.86;39.56;75.01;;
64079;Laerm;51042;49.696;10.808;2023-04-30T06:50:07;58.28;40.06;74.53;;
64079;Laerm;51042;49.696;10.808;2023-04-30T06:52:32;57.21;39.64;75.55;;
64079;Laerm;51042;49.696;10.808;2023-04-30T06:54:58;58.49;39.53;75.74;;
64079;Laerm;51042;49.696;10.808;2023-04-30T06:57:23;61.02;40.84;75.21;;
64079;Laerm;51042;49.696;10.808;2023-04-30T06:59:49;60.47;39.81;79.23;;
64079;Laerm;51042;49.696;10.808;2023-04-30T07:02:15;58.19;39.58;70.67;;
64079;Laerm;51042;49.696;10.808;2023-04-30T07:04:40;57.92;39.90;75.77;;
64079;Laerm;51042;49.696;10.808;2023-04-30T07:07:05;60.73;38.39;81.37;;
64079;Laerm;51042;49.696;10.808;2023-04-30T07:09:31;50.77;38.75;67.37;;
64079;Laerm;51042;49.696;10.808;2023-04-30T07:11:56;58.84;38.10;76.84;;
64079;Laerm;51042;49.696;10.808;2023-04-30T07:14:23;57.55;38.68;74.13;;
64079;Laerm;51042;49.696;10.808;2023-04-30T07:16:51;57.21;38.86;74.47;;
64079;Laerm;51042;49.696;10.808;2023-04-30T07:19:17;55.05;37.98;69.33;;
64079;Laerm;51042;49.696;10.808;2023-04-30T07:21:42;59.24;38.71;77.58;;
64079;Laerm;51042;49.696;10.808;2023-04-30T07:24:07;58.40;38.73;73.26;;
64079;Laerm;51042;49.696;10.808;2023-04-30T07:26:33;56.69;38.86;73.47;;
64079;Laerm;51042;49.696;10.808;2023-04-30T07:28:58;58.81;39.19;81.45;;
64079;Laerm;51042;49.696;10.808;2023-04-30T07:31:23;58.00;38.82;76.87;;
64079;Laerm;51042;49.696;10.808;2023-04-30T07:33:50;57.01;39.44;77.40;;
64079;Laerm;51042;49.696;10.808;2023-04-30T07:36:15;60.45;39.17;77.91;;
64079;Laerm;51042;49.696;10.808;2023-04-30T07:38:41;59.50;39.53;79.71;;
64079;Laerm;51042;49.696;10.808;2023-04-30T07:41:06;59.90;40.26;75.16;;
64079;Laerm;51042;49.696;10.808;2023-04-30T07:43:33;62.04;44.65;79.82;;
64079;Laerm;51042;49.696;10.808;2023-04-30T07:45:59;59.88;39.04;82.10;;
64079;Laerm;51042;49.696;10.808;2023-04-30T07:48:24;61.93;40.89;84.61;;
64079;Laerm;51042;49.696;10.808;2023-04-30T07:50:49;64.77;40.60;83.86;;
64079;Laerm;51042;49.696;10.808;2023-04-30T07:53:15;57.08;40.73;74.33;;
64079;Laerm;51042;49.696;10.808;2023-04-30T07:55:40;57.54;38.90;77.08;;
64079;Laerm;51042;49.696;10.808;2023-04-30T07:58:06;61.20;40.08;76.80;;
64079;Laerm;51042;49.696;10.808;2023-04-30T08:00:31;60.97;40.34;79.16;;
64079;Laerm;51042;49.696;10.808;2023-04-30T08:02:57;60.02;39.86;80.18;;
64079;Laerm;51042;49.696;10.808;2023-04-30T08:05:24;62.55;39.39;86.89;;
64079;Laerm;51042;49.696;10.808;2023-04-30T08:07:49;57.12;38.12;73.25;;
64079;Laerm;51042;49.696;10.808;2023-04-30T08:10:15;54.98;38.00;69.55;;
64079;Laerm;51042;49.696;10.808;2023-04-30T08:12:40;60.63;39.33;73.15;;
64079;Laerm;51042;49.696;10.808;2023-04-30T08:15:06;58.59;38.43;74.38;;
64079;Laerm;51042;49.696;10.808;2023-04-30T08:17:32;58.33;39.43;73.33;;
64079;Laerm;51042;49.696;10.808;2023-04-30T08:19:57;65.92;38.90;86.10;;
64079;Laerm;51042;49.696;10.808;2023-04-30T08:22:23;62.95;40.56;75.79;;
64079;Laerm;51042;49.696;10.808;2023-04-30T08:24:48;62.37;38.73;81.02;;
64079;Laerm;51042;49.696;10.808;2023-04-30T08:27:14;55.30;37.99;72.39;;
64079;Laerm;51042;49.696;10.808;2023-04-30T08:29:40;59.49;38.56;77.23;;
64079;Laerm;51042;49.696;10.808;2023-04-30T08:32:05;59.64;39.28;75.87;;
64079;Laerm;51042;49.696;10.808;2023-04-30T08:34:31;59.78;41.17;74.64;;
64079;Laerm;51042;49.696;10.808;2023-04-30T08:36:56;57.87;40.59;72.26;;
64079;Laerm;51042;49.696;10.808;2023-04-30T08:39:21;60.41;39.46;76.18;;
64079;Laerm;51042;49.696;10.808;2023-04-30T08:41:53;60.83;39.75;77.19;;
64079;Laerm;51042;49.696;10.808;2023-04-30T08:44:21;65.93;40.06;83.99;;
64079;Laerm;51042;49.696;10.808;2023-04-30T08:46:51;62.21;39.89;80.41;;
64079;Laerm;51042;49.696;10.808;2023-04-30T08:49:17;66.24;39.55;84.33;;
64079;Laerm;51042;49.696;10.808;2023-04-30T08:51:43;61.72;41.62;78.30;;
64079;Laerm;51042;49.696;10.808;2023-04-30T08:54:11;55.42;40.29;73.74;;
64079;Laerm;51042;49.696;10.808;2023-04-30T08:56:37;57.46;39.64;74.26;;
64079;Laerm;51042;49.696;10.808;2023-04-30T08:59:03;59.26;39.80;77.33;;
64079;Laerm;51042;49.696;10.808;2023-04-30T09:01:29;60.23;39.85;78.12;;
64079;Laerm;51042;49.696;10.808;2023-04-30T09:03:55;59.23;39.27;80.92;;
64079;Laerm;51042;49.696;10.808;2023-04-30T09:06:20;62.28;39.21;82.21;;
64079;Laerm;51042;49.696;10.808;2023-04-30T09:08:49;60.60;39.92;76.64;;
64079;Laerm;51042;49.696;10.808;2023-04-30T09:13:49;61.44;37.50;81.90;;
64079;Laerm;51042;49.696;10.808;2023-04-30T09:16:16;61.11;38.94;80.83;;
64079;Laerm;51042;49.696;10.808;2023-04-30T09:18:42;65.27;38.94;83.60;;
64079;Laerm;51042;49.696;10.808;2023-04-30T09:21:07;56.27;38.24;71.76;;
64079;Laerm;51042;49.696;10.808;2023-04-30T09:23:33;60.35;38.87;76.03;;
64079;Laerm;51042;49.696;10.808;2023-04-30T09:25:58;63.34;38.75;82.96;;
64079;Laerm;51042;49.696;10.808;2023-04-30T09:28:24;60.47;40.83;78.89;;
64079;Laerm;51042;49.696;10.808;2023-04-30T09:30:52;57.18;38.26;72.98;;
64079;Laerm;51042;49.696;10.808;2023-04-30T09:33:17;59.55;38.62;72.68;;
64079;Laerm;51042;49.696;10.808;2023-04-30T09:35:43;60.65;38.89;78.38;;
64079;Laerm;51042;49.696;10.808;2023-04-30T09:38:31;61.84;39.81;79.95;;
64079;Laerm;51042;49.696;10.808;2023-04-30T09:40:58;61.69;41.71;78.19;;
64079;Laerm;51042;49.696;10.808;2023-04-30T09:43:24;61.81;39.16;79.14;;
64079;Laerm;51042;49.696;10.808;2023-04-30T09:45:51;59.23;38.80;79.78;;
64079;Laerm;51042;49.696;10.808;2023-04-30T09:48:25;56.57;38.22;70.13;;
64079;Laerm;51042;49.696;10.808;2023-04-30T09:50:53;62.60;39.32;84.99;;
64079;Laerm;51042;49.696;10.808;2023-04-30T09:53:19;58.78;41.24;72.21;;
64079;Laerm;51042;49.696;10.808;2023-04-30T09:55:49;62.74;42.17;80.79;;
64079;Laerm;51042;49.696;10.808;2023-04-30T09:58:16;62.00;40.87;80.84;;
64079;Laerm;51042;49.696;10.808;2023-04-30T10:00:44;61.70;39.11;77.26;;
64079;Laerm;51042;49.696;10.808;2023-04-30T10:03:12;62.85;40.56;81.51;;
64079;Laerm;51042;49.696;10.808;2023-04-30T10:05:43;70.66;46.18;88.82;;
64079;Laerm;51042;49.696;10.808;2023-04-30T10:08:47;67.60;41.64;85.22;;
64079;Laerm;51042;49.696;10.808;2023-04-30T10:11:17;65.58;40.61;81.94;;
64079;Laerm;51042;49.696;10.808;2023-04-30T10:13:56;64.81;39.05;85.47;;
64079;Laerm;51042;49.696;10.808;2023-04-30T10:16:42;67.96;39.64;87.52;;
64079;Laerm;51042;49.696;10.808;2023-04-30T10:19:13;68.64;39.42;87.04;;
64079;Laerm;51042;49.696;10.808;2023-04-30T10:21:41;67.62;39.64;86.38;;
64079;Laerm;51042;49.696;10.808;2023-04-30T10:24:12;65.76;39.07;83.47;;
64079;Laerm;51042;49.696;10.808;2023-04-30T10:26:37;63.25;39.10;76.28;;
64079;Laerm;51042;49.696;10.808;2023-04-30T10:29:04;60.50;38.33;79.83;;
64079;Laerm;51042;49.696;10.808;2023-04-30T10:31:30;58.75;37.85;82.90;;
64079;Laerm;51042;49.696;10.808;2023-04-30T10:34:21;57.75;38.19;75.89;;
64079;Laerm;51042;49.696;10.808;2023-04-30T10:37:04;59.14;38.46;83.69;;
64079;Laerm;51042;49.696;10.808;2023-04-30T10:39:32;54.58;37.66;71.64;;
64079;Laerm;51042;49.696;10.808;2023-04-30T10:42:03;61.02;40.89;75.71;;
64079;Laerm;51042;49.696;10.808;2023-04-30T10:44:33;57.22;37.95;76.59;;
64079;Laerm;51042;49.696;10.808;2023-04-30T10:47:00;57.92;38.42;76.46;;
64079;Laerm;51042;49.696;10.808;2023-04-30T10:49:29;63.16;38.55;85.43;;
64079;Laerm;51042;49.696;10.808;2023-04-30T10:51:58;63.01;38.94;82.70;;
64079;Laerm;51042;49.696;10.808;2023-04-30T10:54:35;63.06;39.55;84.25;;
64079;Laerm;51042;49.696;10.808;2023-04-30T10:59:36;60.47;38.47;81.46;;
64079;Laerm;51042;49.696;10.808;2023-04-30T11:02:02;60.22;39.23;74.17;;
64079;Laerm;51042;49.696;10.808;2023-04-30T11:04:27;58.74;38.58;77.77;;
64079;Laerm;51042;49.696;10.808;2023-04-30T11:07:05;65.00;38.51;86.80;;
64079;Laerm;51042;49.696;10.808;2023-04-30T11:09:39;64.89;38.81;81.98;;
64079;Laerm;51042;49.696;10.808;2023-04-30T11:12:19;64.90;38.32;85.78;;
64079;Laerm;51042;49.696;10.808;2023-04-30T11:14:46;62.30;38.66;81.56;;
64079;Laerm;51042;49.696;10.808;2023-04-30T11:17:23;60.75;38.11;77.76;;
64079;Laerm;51042;49.696;10.808;2023-04-30T11:19:52;57.51;37.47;80.26;;
64079;Laerm;51042;49.696;10.808;2023-04-30T11:22:21;63.08;38.11;82.87;;
64079;Laerm;51042;49.696;10.808;2023-04-30T11:27:24;56.83;38.59;79.07;;
64079;Laerm;51042;49.696;10.808;2023-04-30T11:29:50;56.20;39.33;73.00;;
64079;Laerm;51042;49.696;10.808;2023-04-30T11:32:20;59.34;38.74;83.86;;
64079;Laerm;51042;49.696;10.808;2023-04-30T11:34:46;68.45;39.74;89.53;;
64079;Laerm;51042;49.696;10.808;2023-04-30T11:37:31;62.44;38.89;80.38;;
64079;Laerm;51042;49.696;10.808;2023-04-30T11:40:00;56.19;38.87;73.25;;
64079;Laerm;51042;49.696;10.808;2023-04-30T11:42:26;55.28;38.03;75.59;;
64079;Laerm;51042;49.696;10.808;2023-04-30T11:44:53;57.11;38.48;75.97;;
64079;Laerm;51042;49.696;10.808;2023-04-30T11:47:19;65.58;40.30;86.96;;
64079;Laerm;51042;49.696;10.808;2023-04-30T11:49:44;65.36;39.62;84.53;;
64079;Laerm;51042;49.696;10.808;2023-04-30T11:52:12;61.07;39.46;78.41;;
64079;Laerm;51042;49.696;10.808;2023-04-30T11:54:37;59.43;39.17;73.93;;
64079;Laerm;51042;49.696;10.808;2023-04-30T11:57:03;58.53;39.29;80.65;;
64079;Laerm;51042;49.696;10.808;2023-04-30T11:59:30;58.02;38.39;73.98;;
64079;Laerm;51042;49.696;10.808;2023-04-30T12:01:56;70.30;39.03;91.32;;
64079;Laerm;51042;49.696;10.808;2023-04-30T12:04:22;58.09;38.27;73.95;;
64079;Laerm;51042;49.696;10.808;2023-04-30T12:06:47;57.99;37.75;79.47;;
64079;Laerm;51042;49.696;10.808;2023-04-30T12:09:13;72.88;38.15;92.32;;
64079;Laerm;51042;49.696;10.808;2023-04-30T12:11:38;66.78;38.47;84.13;;
64079;Laerm;51042;49.696;10.808;2023-04-30T12:14:05;60.27;38.02;78.12;;
64079;Laerm;51042;49.696;10.808;2023-04-30T12:16:57;65.32;38.77;85.04;;
64079;Laerm;51042;49.696;10.808;2023-04-30T12:19:24;64.38;38.63;83.45;;
64079;Laerm;51042;49.696;10.808;2023-04-30T12:21:49;59.81;39.05;79.15;;
64079;Laerm;51042;49.696;10.808;2023-04-30T12:24:17;55.92;38.12;73.40;;
64079;Laerm;51042;49.696;10.808;2023-04-30T12:26:43;58.20;38.37;74.68;;
64079;Laerm;51042;49.696;10.808;2023-04-30T12:29:10;63.55;38.48;87.24;;
64079;Laerm;51042;49.696;10.808;2023-04-30T12:31:37;62.04;37.46;81.08;;
64079;Laerm;51042;49.696;10.808;2023-04-30T12:34:04;55.41;39.07;70.66;;
64079;Laerm;51042;49.696;10.808;2023-04-30T12:36:31;65.97;38.20;82.76;;
64079;Laerm;51042;49.696;10.808;2023-04-30T12:39:01;68.78;38.99;88.65;;
64079;Laerm;51042;49.696;10.808;2023-04-30T12:41:30;62.22;38.36;79.71;;
64079;Laerm;51042;49.696;10.808;2023-04-30T12:46:39;56.90;37.81;77.52;;
64079;Laerm;51042;49.696;10.808;2023-04-30T12:49:05;72.55;38.14;90.75;;
64079;Laerm;51042;49.696;10.808;2023-04-30T12:51:34;59.62;38.36;77.01;;
64079;Laerm;51042;49.696;10.808;2023-04-30T12:54:00;58.50;37.98;80.53;;
64079;Laerm;51042;49.696;10.808;2023-04-30T12:56:25;56.28;38.08;74.30;;
64079;Laerm;51042;49.696;10.808;2023-04-30T12:58:50;67.98;39.39;84.69;;
64079;Laerm;51042;49.696;10.808;2023-04-30T13:01:18;67.71;39.18;87.54;;
64079;Laerm;51042;49.696;10.808;2023-04-30T13:03:43;60.07;39.92;80.34;;
64079;Laerm;51042;49.696;10.808;2023-04-30T13:06:09;60.35;38.60;75.79;;
64079;Laerm;51042;49.696;10.808;2023-04-30T13:08:34;60.67;37.36;77.80;;
64079;Laerm;51042;49.696;10.808;2023-04-30T13:10:59;62.35;38.64;80.53;;
64079;Laerm;51042;49.696;10.808;2023-04-30T13:13:25;61.91;38.31;83.36;;
64079;Laerm;51042;49.696;10.808;2023-04-30T13:15:50;63.51;38.26;85.40;;
64079;Laerm;51042;49.696;10.808;2023-04-30T13:18:16;66.55;40.12;85.00;;
64079;Laerm;51042;49.696;10.808;2023-04-30T13:20:41;58.17;38.71;76.27;;
64079;Laerm;51042;49.696;10.808;2023-04-30T13:23:08;57.41;38.87;69.05;;
64079;Laerm;51042;49.696;10.808;2023-04-30T13:25:34;64.48;39.88;80.93;;
64079;Laerm;51042;49.696;10.808;2023-04-30T13:28:00;68.38;39.04;86.19;;
64079;Laerm;51042;49.696;10.808;2023-04-30T13:30:26;62.95;40.84;80.54;;
64079;Laerm;51042;49.696;10.808;2023-04-30T13:32:51;56.64;38.53;73.58;;
64079;Laerm;51042;49.696;10.808;2023-04-30T13:35:18;55.49;38.42;66.58;;
64079;Laerm;51042;49.696;10.808;2023-04-30T13:37:44;58.70;38.19;77.98;;
64079;Laerm;51042;49.696;10.808;2023-04-30T13:40:09;57.91;38.19;74.16;;
64079;Laerm;51042;49.696;10.808;2023-04-30T13:42:37;55.37;38.28;70.64;;
64079;Laerm;51042;49.696;10.808;2023-04-30T13:45:05;59.85;38.38;81.54;;
64079;Laerm;51042;49.696;10.808;2023-04-30T13:47:31;58.13;39.31;72.44;;
64079;Laerm;51042;49.696;10.808;2023-04-30T13:49:56;63.24;40.51;80.84;;
64079;Laerm;51042;49.696;10.808;2023-04-30T13:52:22;75.74;40.90;93.84;;
64079;Laerm;51042;49.696;10.808;2023-04-30T13:54:47;63.06;40.35;81.37;;